Chino Hills, CA (91709)

11:57 AM PST on March 05, 2015 (GMT -0800)
Enclos Corp. | Change Station
CLOSE
Current Station
Personal Weather Station
Location: Chino, CA
Elevation: 612 ft
Nearby Weather Stations

Elev 612 ft 33.98 °N, 117.69 °W | Updated 29 seconds ago

Scattered Clouds
Scattered Clouds
75.4 °F
Feels Like 75 °F
N
3.0
Wind Variable Wind from NE
Gusts 4.0 mph

Today
High -- | Low -- °F
--% Chance of Precip.
Yesterday
High -- | Low -- °F
Precip. -- in
6:14 AM 5:50 PM
Full, 100% visible
Pressure 30.27 in
Visibility 10.0 miles
Clouds Scattered Clouds 25000 ft
Heat Index 75 °F
Dew Point 23 °F
Humidity 14%
Rainfall in
Snow Depth Not available.
UV 5 out of 12
Pollen 9.10 out of 12
Air Quality Not available.
Flu Activity Not available.
METAR KCNO 051853Z 00000KT 10SM SCT250 21/M02 A3028 RMK AO2 SLP251 T02111017

More Conditions Fewer Conditions

Pressure 30.27 in
Visibility 10.0 miles
Clouds Scattered Clouds 25000 ft
Heat Index 75 °F
Dew Point 23 °F
Humidity 14%
Rainfall in
Snow Depth Not available.
UV 5 out of 12
Pollen 9.10 out of 12
Air Quality Not available.
Flu Activity Not available.
METAR KCNO 051853Z 00000KT 10SM SCT250 21/M02 A3028 RMK AO2 SLP251 T02111017

More Conditions Fewer Conditions

10-Day Weather Forecast

Almanac

Astronomy

Mar. 05, 2015 Rise Set
Actual Time
Civil Twilight
Nautical Twilight
Astronomical Twilight
Moon
Length of Visible Light
Length of Day
Tomorrow will be .
, % of the Moon is Illuminated

Today's Extremes

State Highs State Lows

Community

WunderPhotos

Upload Photos

1,802,929 photos uploaded!

WunderBlogs® & News

Nearby

Air Quality

  Air Quality AQ Index Pollutant
Not available.

Snow Depth

Station Depth Elevation

Earthquake Activity

City Distance Mag. Time & Date
Minimum magnitude displayed is 2.5.

Coastal Water Temperatures

Place Temperature

Nearby Weather Stations